sensor_id;sensor_type;location;lat;lon;timestamp;P1;durP1;ratioP1;P2;durP2;ratioP2
5587;SDS011;2816;49.778;9.986;2023-04-22T00:01:53;5.30;;;4.80;;
5587;SDS011;2816;49.778;9.986;2023-04-22T00:04:20;8.30;;;5.13;;
5587;SDS011;2816;49.778;9.986;2023-04-22T00:06:47;5.37;;;4.83;;
5587;SDS011;2816;49.778;9.986;2023-04-22T00:09:15;5.70;;;4.43;;
5587;SDS011;2816;49.778;9.986;2023-04-22T00:11:42;6.17;;;4.90;;
5587;SDS011;2816;49.778;9.986;2023-04-22T00:14:09;8.70;;;4.80;;
5587;SDS011;2816;49.778;9.986;2023-04-22T00:16:36;4.60;;;4.20;;
5587;SDS011;2816;49.778;9.986;2023-04-22T00:19:03;4.40;;;3.93;;
5587;SDS011;2816;49.778;9.986;2023-04-22T00:21:30;4.73;;;4.33;;
5587;SDS011;2816;49.778;9.986;2023-04-22T00:23:57;5.27;;;3.50;;
5587;SDS011;2816;49.778;9.986;2023-04-22T00:26:26;6.37;;;3.50;;
5587;SDS011;2816;49.778;9.986;2023-04-22T00:28:53;7.63;;;3.70;;
5587;SDS011;2816;49.778;9.986;2023-04-22T00:31:19;4.40;;;3.90;;
5587;SDS011;2816;49.778;9.986;2023-04-22T00:33:47;5.73;;;3.53;;
5587;SDS011;2816;49.778;9.986;2023-04-22T00:36:13;4.90;;;3.87;;
5587;SDS011;2816;49.778;9.986;2023-04-22T00:38:41;5.47;;;4.00;;
5587;SDS011;2816;49.778;9.986;2023-04-22T00:41:13;5.80;;;4.00;;
5587;SDS011;2816;49.778;9.986;2023-04-22T00:43:42;5.80;;;4.20;;
5587;SDS011;2816;49.778;9.986;2023-04-22T00:46:08;4.40;;;3.60;;
5587;SDS011;2816;49.778;9.986;2023-04-22T00:48:36;4.60;;;4.00;;
5587;SDS011;2816;49.778;9.986;2023-04-22T00:51:03;6.33;;;4.37;;
5587;SDS011;2816;49.778;9.986;2023-04-22T00:53:30;6.00;;;4.37;;
5587;SDS011;2816;49.778;9.986;2023-04-22T00:55:58;4.87;;;4.30;;
5587;SDS011;2816;49.778;9.986;2023-04-22T00:58:26;6.63;;;3.97;;
5587;SDS011;2816;49.778;9.986;2023-04-22T01:00:55;6.57;;;4.60;;
5587;SDS011;2816;49.778;9.986;2023-04-22T01:03:23;8.33;;;3.73;;
5587;SDS011;2816;49.778;9.986;2023-04-22T01:05:52;6.90;;;3.90;;
5587;SDS011;2816;49.778;9.986;2023-04-22T01:08:19;6.63;;;4.10;;
5587;SDS011;2816;49.778;9.986;2023-04-22T01:10:46;5.60;;;4.43;;
5587;SDS011;2816;49.778;9.986;2023-04-22T01:13:13;6.20;;;3.83;;
5587;SDS011;2816;49.778;9.986;2023-04-22T01:15:40;5.27;;;4.30;;
5587;SDS011;2816;49.778;9.986;2023-04-22T01:18:08;16.00;;;4.70;;
5587;SDS011;2816;49.778;9.986;2023-04-22T01:20:35;7.50;;;4.43;;
5587;SDS011;2816;49.778;9.986;2023-04-22T01:23:02;6.63;;;4.57;;
5587;SDS011;2816;49.778;9.986;2023-04-22T01:25:35;7.67;;;4.13;;
5587;SDS011;2816;49.778;9.986;2023-04-22T01:28:02;8.07;;;4.40;;
5587;SDS011;2816;49.778;9.986;2023-04-22T01:30:29;8.90;;;4.00;;
5587;SDS011;2816;49.778;9.986;2023-04-22T01:32:57;5.50;;;4.20;;
5587;SDS011;2816;49.778;9.986;2023-04-22T01:35:24;5.83;;;4.60;;
5587;SDS011;2816;49.778;9.986;2023-04-22T01:37:54;5.40;;;4.63;;
5587;SDS011;2816;49.778;9.986;2023-04-22T01:40:22;7.33;;;4.60;;
5587;SDS011;2816;49.778;9.986;2023-04-22T01:42:52;6.10;;;4.90;;
5587;SDS011;2816;49.778;9.986;2023-04-22T01:45:19;5.63;;;5.10;;
5587;SDS011;2816;49.778;9.986;2023-04-22T01:47:46;5.87;;;4.70;;
5587;SDS011;2816;49.778;9.986;2023-04-22T01:50:13;7.23;;;5.47;;
5587;SDS011;2816;49.778;9.986;2023-04-22T01:52:40;12.70;;;4.30;;
5587;SDS011;2816;49.778;9.986;2023-04-22T01:55:07;7.20;;;4.13;;
5587;SDS011;2816;49.778;9.986;2023-04-22T01:57:35;9.73;;;4.80;;
5587;SDS011;2816;49.778;9.986;2023-04-22T02:00:04;6.37;;;4.57;;
5587;SDS011;2816;49.778;9.986;2023-04-22T02:02:33;4.50;;;4.10;;
5587;SDS011;2816;49.778;9.986;2023-04-22T02:05:00;5.30;;;4.07;;
5587;SDS011;2816;49.778;9.986;2023-04-22T02:07:27;6.80;;;4.23;;
5587;SDS011;2816;49.778;9.986;2023-04-22T02:09:54;6.93;;;4.87;;
5587;SDS011;2816;49.778;9.986;2023-04-22T02:12:20;5.10;;;4.00;;
5587;SDS011;2816;49.778;9.986;2023-04-22T02:14:48;6.57;;;5.90;;
5587;SDS011;2816;49.778;9.986;2023-04-22T02:17:16;7.33;;;5.27;;
5587;SDS011;2816;49.778;9.986;2023-04-22T02:19:43;6.57;;;5.37;;
5587;SDS011;2816;49.778;9.986;2023-04-22T02:22:10;5.90;;;5.17;;
5587;SDS011;2816;49.778;9.986;2023-04-22T02:24:37;5.03;;;4.53;;
5587;SDS011;2816;49.778;9.986;2023-04-22T02:27:04;7.80;;;5.03;;
5587;SDS011;2816;49.778;9.986;2023-04-22T02:29:32;7.03;;;5.00;;
5587;SDS011;2816;49.778;9.986;2023-04-22T02:31:59;6.03;;;5.13;;
5587;SDS011;2816;49.778;9.986;2023-04-22T02:34:28;5.40;;;4.80;;
5587;SDS011;2816;49.778;9.986;2023-04-22T02:36:55;6.10;;;4.50;;
5587;SDS011;2816;49.778;9.986;2023-04-22T02:39:21;5.13;;;4.60;;
5587;SDS011;2816;49.778;9.986;2023-04-22T02:41:48;5.13;;;4.60;;
5587;SDS011;2816;49.778;9.986;2023-04-22T02:44:15;5.57;;;4.63;;
5587;SDS011;2816;49.778;9.986;2023-04-22T02:46:42;8.10;;;5.40;;
5587;SDS011;2816;49.778;9.986;2023-04-22T02:49:09;9.00;;;4.90;;
5587;SDS011;2816;49.778;9.986;2023-04-22T02:51:37;15.70;;;5.90;;
5587;SDS011;2816;49.778;9.986;2023-04-22T02:54:04;8.70;;;5.37;;
5587;SDS011;2816;49.778;9.986;2023-04-22T02:56:31;8.93;;;6.40;;
5587;SDS011;2816;49.778;9.986;2023-04-22T02:58:58;7.13;;;5.57;;
5587;SDS011;2816;49.778;9.986;2023-04-22T03:01:25;7.20;;;5.90;;
5587;SDS011;2816;49.778;9.986;2023-04-22T03:03:52;5.90;;;5.30;;
5587;SDS011;2816;49.778;9.986;2023-04-22T03:06:19;7.10;;;5.23;;
5587;SDS011;2816;49.778;9.986;2023-04-22T03:08:48;6.27;;;5.67;;
5587;SDS011;2816;49.778;9.986;2023-04-22T03:11:14;5.70;;;5.10;;
5587;SDS011;2816;49.778;9.986;2023-04-22T03:13:41;8.83;;;6.10;;
5587;SDS011;2816;49.778;9.986;2023-04-22T03:16:09;7.00;;;6.30;;
5587;SDS011;2816;49.778;9.986;2023-04-22T03:18:36;11.60;;;6.10;;
5587;SDS011;2816;49.778;9.986;2023-04-22T03:21:03;7.20;;;5.37;;
5587;SDS011;2816;49.778;9.986;2023-04-22T03:23:31;11.33;;;6.87;;
5587;SDS011;2816;49.778;9.986;2023-04-22T03:25:59;8.50;;;6.23;;
5587;SDS011;2816;49.778;9.986;2023-04-22T03:28:26;6.87;;;6.17;;
5587;SDS011;2816;49.778;9.986;2023-04-22T03:30:53;7.00;;;6.20;;
5587;SDS011;2816;49.778;9.986;2023-04-22T03:33:20;7.77;;;5.80;;
5587;SDS011;2816;49.778;9.986;2023-04-22T03:35:47;10.37;;;6.60;;
5587;SDS011;2816;49.778;9.986;2023-04-22T03:38:14;5.93;;;5.00;;
5587;SDS011;2816;49.778;9.986;2023-04-22T03:40:41;8.00;;;6.30;;
5587;SDS011;2816;49.778;9.986;2023-04-22T03:43:09;7.10;;;5.73;;
5587;SDS011;2816;49.778;9.986;2023-04-22T03:45:36;9.20;;;5.20;;
5587;SDS011;2816;49.778;9.986;2023-04-22T03:48:03;9.00;;;5.23;;
5587;SDS011;2816;49.778;9.986;2023-04-22T03:50:30;14.33;;;6.37;;
5587;SDS011;2816;49.778;9.986;2023-04-22T03:52:58;7.53;;;5.23;;
5587;SDS011;2816;49.778;9.986;2023-04-22T03:55:25;8.17;;;5.80;;
5587;SDS011;2816;49.778;9.986;2023-04-22T03:57:52;6.30;;;5.30;;
5587;SDS011;2816;49.778;9.986;2023-04-22T04:00:20;8.50;;;6.23;;
5587;SDS011;2816;49.778;9.986;2023-04-22T04:02:47;4.90;;;4.40;;
5587;SDS011;2816;49.778;9.986;2023-04-22T04:05:14;7.13;;;5.47;;
5587;SDS011;2816;49.778;9.986;2023-04-22T04:07:41;7.80;;;5.93;;
5587;SDS011;2816;49.778;9.986;2023-04-22T04:10:09;7.33;;;5.80;;
5587;SDS011;2816;49.778;9.986;2023-04-22T04:12:36;5.90;;;5.00;;
5587;SDS011;2816;49.778;9.986;2023-04-22T04:15:03;7.70;;;5.33;;
5587;SDS011;2816;49.778;9.986;2023-04-22T04:17:33;7.47;;;5.70;;
5587;SDS011;2816;49.778;9.986;2023-04-22T04:20:00;6.70;;;4.70;;
5587;SDS011;2816;49.778;9.986;2023-04-22T04:22:27;6.17;;;4.80;;
5587;SDS011;2816;49.778;9.986;2023-04-22T04:24:54;9.27;;;5.10;;
5587;SDS011;2816;49.778;9.986;2023-04-22T04:27:21;6.20;;;4.67;;
5587;SDS011;2816;49.778;9.986;2023-04-22T04:29:48;7.80;;;5.10;;
5587;SDS011;2816;49.778;9.986;2023-04-22T04:32:16;6.03;;;5.10;;
5587;SDS011;2816;49.778;9.986;2023-04-22T04:34:44;8.00;;;5.40;;
5587;SDS011;2816;49.778;9.986;2023-04-22T04:37:11;16.90;;;5.77;;
5587;SDS011;2816;49.778;9.986;2023-04-22T04:39:38;15.73;;;5.70;;
5587;SDS011;2816;49.778;9.986;2023-04-22T04:42:06;12.87;;;5.80;;
5587;SDS011;2816;49.778;9.986;2023-04-22T04:44:33;7.10;;;5.33;;
5587;SDS011;2816;49.778;9.986;2023-04-22T04:47:00;7.30;;;5.53;;
5587;SDS011;2816;49.778;9.986;2023-04-22T04:49:28;5.70;;;5.10;;
5587;SDS011;2816;49.778;9.986;2023-04-22T04:51:57;8.00;;;5.30;;
5587;SDS011;2816;49.778;9.986;2023-04-22T04:54:24;5.83;;;5.23;;
5587;SDS011;2816;49.778;9.986;2023-04-22T04:56:51;8.00;;;5.50;;
5587;SDS011;2816;49.778;9.986;2023-04-22T04:59:17;8.90;;;6.53;;
5587;SDS011;2816;49.778;9.986;2023-04-22T05:01:44;7.50;;;6.57;;
5587;SDS011;2816;49.778;9.986;2023-04-22T05:04:11;12.83;;;6.77;;
5587;SDS011;2816;49.778;9.986;2023-04-22T05:06:38;9.30;;;5.70;;
5587;SDS011;2816;49.778;9.986;2023-04-22T05:09:06;9.43;;;6.13;;
5587;SDS011;2816;49.778;9.986;2023-04-22T05:11:34;9.47;;;5.83;;
5587;SDS011;2816;49.778;9.986;2023-04-22T05:14:01;9.70;;;6.30;;
5587;SDS011;2816;49.778;9.986;2023-04-22T05:16:28;7.00;;;6.07;;
5587;SDS011;2816;49.778;9.986;2023-04-22T05:18:55;8.20;;;6.47;;
5587;SDS011;2816;49.778;9.986;2023-04-22T05:21:22;9.30;;;6.33;;
5587;SDS011;2816;49.778;9.986;2023-04-22T05:23:49;12.03;;;6.17;;
5587;SDS011;2816;49.778;9.986;2023-04-22T05:26:17;11.57;;;5.50;;
5587;SDS011;2816;49.778;9.986;2023-04-22T05:28:44;9.27;;;5.80;;
5587;SDS011;2816;49.778;9.986;2023-04-22T05:31:11;6.90;;;5.40;;
5587;SDS011;2816;49.778;9.986;2023-04-22T05:33:38;9.60;;;6.03;;
5587;SDS011;2816;49.778;9.986;2023-04-22T05:36:05;11.53;;;6.37;;
5587;SDS011;2816;49.778;9.986;2023-04-22T05:38:32;6.60;;;5.03;;
5587;SDS011;2816;49.778;9.986;2023-04-22T05:40:59;9.93;;;6.33;;
5587;SDS011;2816;49.778;9.986;2023-04-22T05:43:27;7.20;;;4.87;;
5587;SDS011;2816;49.778;9.986;2023-04-22T05:45:54;6.43;;;4.70;;
5587;SDS011;2816;49.778;9.986;2023-04-22T05:48:21;7.67;;;4.43;;
5587;SDS011;2816;49.778;9.986;2023-04-22T05:50:48;8.50;;;5.83;;
5587;SDS011;2816;49.778;9.986;2023-04-22T05:53:15;10.00;;;5.37;;
5587;SDS011;2816;49.778;9.986;2023-04-22T05:55:42;6.00;;;4.90;;
5587;SDS011;2816;49.778;9.986;2023-04-22T05:58:09;9.60;;;5.90;;
5587;SDS011;2816;49.778;9.986;2023-04-22T06:00:37;8.10;;;5.30;;
5587;SDS011;2816;49.778;9.986;2023-04-22T06:03:04;6.30;;;5.30;;
5587;SDS011;2816;49.778;9.986;2023-04-22T06:05:31;10.03;;;5.77;;
5587;SDS011;2816;49.778;9.986;2023-04-22T06:07:58;8.97;;;5.80;;
5587;SDS011;2816;49.778;9.986;2023-04-22T06:10:25;7.50;;;5.07;;
5587;SDS011;2816;49.778;9.986;2023-04-22T06:12:52;8.30;;;5.47;;
5587;SDS011;2816;49.778;9.986;2023-04-22T06:15:19;10.13;;;5.33;;
5587;SDS011;2816;49.778;9.986;2023-04-22T06:17:48;6.77;;;5.10;;
5587;SDS011;2816;49.778;9.986;2023-04-22T06:20:15;8.27;;;5.57;;
5587;SDS011;2816;49.778;9.986;2023-04-22T06:22:42;7.33;;;5.47;;
5587;SDS011;2816;49.778;9.986;2023-04-22T06:25:09;6.93;;;4.70;;
5587;SDS011;2816;49.778;9.986;2023-04-22T06:27:35;7.20;;;4.90;;
5587;SDS011;2816;49.778;9.986;2023-04-22T06:30:03;8.50;;;5.90;;
5587;SDS011;2816;49.778;9.986;2023-04-22T06:32:30;6.43;;;4.53;;
5587;SDS011;2816;49.778;9.986;2023-04-22T06:34:58;7.73;;;5.17;;
5587;SDS011;2816;49.778;9.986;2023-04-22T06:37:25;8.20;;;5.13;;
5587;SDS011;2816;49.778;9.986;2023-04-22T06:39:52;11.87;;;5.90;;
5587;SDS011;2816;49.778;9.986;2023-04-22T06:42:19;7.90;;;4.43;;
5587;SDS011;2816;49.778;9.986;2023-04-22T06:44:46;7.20;;;4.93;;
5587;SDS011;2816;49.778;9.986;2023-04-22T06:47:13;7.90;;;4.90;;
5587;SDS011;2816;49.778;9.986;2023-04-22T06:49:41;5.73;;;4.80;;
5587;SDS011;2816;49.778;9.986;2023-04-22T06:52:10;7.20;;;4.97;;
5587;SDS011;2816;49.778;9.986;2023-04-22T06:54:37;9.97;;;4.90;;
5587;SDS011;2816;49.778;9.986;2023-04-22T06:57:04;4.57;;;4.13;;
5587;SDS011;2816;49.778;9.986;2023-04-22T06:59:32;13.63;;;5.20;;
5587;SDS011;2816;49.778;9.986;2023-04-22T07:01:58;8.80;;;4.50;;
5587;SDS011;2816;49.778;9.986;2023-04-22T07:04:25;7.80;;;4.40;;
5587;SDS011;2816;49.778;9.986;2023-04-22T07:06:53;6.43;;;4.23;;
5587;SDS011;2816;49.778;9.986;2023-04-22T07:09:21;13.60;;;4.50;;
5587;SDS011;2816;49.778;9.986;2023-04-22T07:11:48;7.73;;;4.47;;
5587;SDS011;2816;49.778;9.986;2023-04-22T07:14:15;5.80;;;3.87;;
5587;SDS011;2816;49.778;9.986;2023-04-22T07:16:42;10.17;;;4.60;;
5587;SDS011;2816;49.778;9.986;2023-04-22T07:19:09;7.00;;;4.40;;
5587;SDS011;2816;49.778;9.986;2023-04-22T07:21:36;6.13;;;3.97;;
5587;SDS011;2816;49.778;9.986;2023-04-22T07:24:03;6.17;;;4.60;;
5587;SDS011;2816;49.778;9.986;2023-04-22T07:26:32;10.30;;;4.77;;
5587;SDS011;2816;49.778;9.986;2023-04-22T07:28:59;10.47;;;4.63;;
5587;SDS011;2816;49.778;9.986;2023-04-22T07:31:26;12.47;;;4.33;;
5587;SDS011;2816;49.778;9.986;2023-04-22T07:33:53;9.57;;;4.67;;
5587;SDS011;2816;49.778;9.986;2023-04-22T07:36:20;4.90;;;4.40;;
5587;SDS011;2816;49.778;9.986;2023-04-22T07:38:47;7.20;;;4.37;;
5587;SDS011;2816;49.778;9.986;2023-04-22T07:41:14;13.17;;;4.80;;
5587;SDS011;2816;49.778;9.986;2023-04-22T07:43:42;5.90;;;4.50;;
5587;SDS011;2816;49.778;9.986;2023-04-22T07:46:09;10.70;;;4.70;;
5587;SDS011;2816;49.778;9.986;2023-04-22T07:48:36;6.90;;;4.47;;
5587;SDS011;2816;49.778;9.986;2023-04-22T07:51:03;5.43;;;4.20;;
5587;SDS011;2816;49.778;9.986;2023-04-22T07:53:30;8.10;;;6.53;;
5587;SDS011;2816;49.778;9.986;2023-04-22T07:55:57;38.37;;;9.17;;
5587;SDS011;2816;49.778;9.986;2023-04-22T07:58:24;8.93;;;4.30;;
5587;SDS011;2816;49.778;9.986;2023-04-22T08:00:52;5.97;;;4.30;;
5587;SDS011;2816;49.778;9.986;2023-04-22T08:03:19;5.53;;;4.30;;
5587;SDS011;2816;49.778;9.986;2023-04-22T08:05:46;5.10;;;4.20;;
5587;SDS011;2816;49.778;9.986;2023-04-22T08:08:13;6.80;;;4.83;;
5587;SDS011;2816;49.778;9.986;2023-04-22T08:10:40;12.77;;;5.10;;
5587;SDS011;2816;49.778;9.986;2023-04-22T08:13:07;10.03;;;4.90;;
5587;SDS011;2816;49.778;9.986;2023-04-22T08:15:34;8.77;;;5.73;;
5587;SDS011;2816;49.778;9.986;2023-04-22T08:18:03;10.03;;;5.20;;
5587;SDS011;2816;49.778;9.986;2023-04-22T08:20:30;7.30;;;4.90;;
5587;SDS011;2816;49.778;9.986;2023-04-22T08:22:57;5.80;;;4.30;;
5587;SDS011;2816;49.778;9.986;2023-04-22T08:25:24;6.33;;;4.40;;
5587;SDS011;2816;49.778;9.986;2023-04-22T08:27:51;8.20;;;4.90;;
5587;SDS011;2816;49.778;9.986;2023-04-22T08:30:18;7.50;;;4.27;;
5587;SDS011;2816;49.778;9.986;2023-04-22T08:32:45;9.43;;;4.57;;
5587;SDS011;2816;49.778;9.986;2023-04-22T08:35:14;5.50;;;3.93;;
5587;SDS011;2816;49.778;9.986;2023-04-22T08:37:40;6.33;;;4.50;;
5587;SDS011;2816;49.778;9.986;2023-04-22T08:40:08;4.83;;;4.20;;
5587;SDS011;2816;49.778;9.986;2023-04-22T08:42:35;6.93;;;4.33;;
5587;SDS011;2816;49.778;9.986;2023-04-22T08:45:03;8.40;;;4.57;;
5587;SDS011;2816;49.778;9.986;2023-04-22T08:47:30;9.80;;;3.90;;
5587;SDS011;2816;49.778;9.986;2023-04-22T08:49:58;6.80;;;4.33;;
5587;SDS011;2816;49.778;9.986;2023-04-22T08:52:30;6.70;;;4.47;;
5587;SDS011;2816;49.778;9.986;2023-04-22T08:54:57;4.50;;;4.07;;
5587;SDS011;2816;49.778;9.986;2023-04-22T08:57:24;7.63;;;4.40;;
5587;SDS011;2816;49.778;9.986;2023-04-22T08:59:51;11.73;;;4.90;;
5587;SDS011;2816;49.778;9.986;2023-04-22T09:02:19;5.93;;;4.63;;
5587;SDS011;2816;49.778;9.986;2023-04-22T09:04:48;10.10;;;4.93;;
5587;SDS011;2816;49.778;9.986;2023-04-22T09:07:19;5.10;;;4.60;;
5587;SDS011;2816;49.778;9.986;2023-04-22T09:09:50;7.00;;;4.60;;
5587;SDS011;2816;49.778;9.986;2023-04-22T09:12:18;6.00;;;4.80;;
5587;SDS011;2816;49.778;9.986;2023-04-22T09:14:45;15.03;;;4.90;;
5587;SDS011;2816;49.778;9.986;2023-04-22T09:17:13;6.67;;;4.17;;
5587;SDS011;2816;49.778;9.986;2023-04-22T09:19:41;10.47;;;4.83;;
5587;SDS011;2816;49.778;9.986;2023-04-22T09:22:08;13.53;;;4.37;;
5587;SDS011;2816;49.778;9.986;2023-04-22T09:24:40;8.13;;;5.00;;
5587;SDS011;2816;49.778;9.986;2023-04-22T09:27:10;10.80;;;4.53;;
5587;SDS011;2816;49.778;9.986;2023-04-22T09:29:37;5.77;;;4.23;;
5587;SDS011;2816;49.778;9.986;2023-04-22T09:32:10;13.00;;;4.30;;
5587;SDS011;2816;49.778;9.986;2023-04-22T09:34:44;9.73;;;4.10;;
5587;SDS011;2816;49.778;9.986;2023-04-22T09:37:17;10.33;;;3.97;;
5587;SDS011;2816;49.778;9.986;2023-04-22T09:39:46;23.37;;;4.80;;
5587;SDS011;2816;49.778;9.986;2023-04-22T09:42:15;21.87;;;4.40;;
5587;SDS011;2816;49.778;9.986;2023-04-22T09:44:43;22.83;;;5.87;;
5587;SDS011;2816;49.778;9.986;2023-04-22T09:47:11;37.13;;;7.60;;
5587;SDS011;2816;49.778;9.986;2023-04-22T09:49:38;10.90;;;3.53;;
5587;SDS011;2816;49.778;9.986;2023-04-22T09:52:10;19.23;;;4.37;;
5587;SDS011;2816;49.778;9.986;2023-04-22T09:54:48;7.50;;;3.60;;
5587;SDS011;2816;49.778;9.986;2023-04-22T09:57:17;9.77;;;3.37;;
5587;SDS011;2816;49.778;9.986;2023-04-22T09:59:45;11.97;;;4.20;;
5587;SDS011;2816;49.778;9.986;2023-04-22T10:02:12;4.83;;;3.40;;
5587;SDS011;2816;49.778;9.986;2023-04-22T10:04:39;5.03;;;3.63;;
5587;SDS011;2816;49.778;9.986;2023-04-22T10:07:06;4.10;;;3.00;;
5587;SDS011;2816;49.778;9.986;2023-04-22T10:09:33;6.70;;;3.97;;
5587;SDS011;2816;49.778;9.986;2023-04-22T10:12:00;6.60;;;3.33;;
5587;SDS011;2816;49.778;9.986;2023-04-22T10:14:29;9.10;;;3.90;;
5587;SDS011;2816;49.778;9.986;2023-04-22T10:16:56;8.97;;;4.27;;
5587;SDS011;2816;49.778;9.986;2023-04-22T10:19:26;7.30;;;3.20;;
5587;SDS011;2816;49.778;9.986;2023-04-22T10:21:54;5.27;;;3.50;;
5587;SDS011;2816;49.778;9.986;2023-04-22T10:24:24;6.93;;;3.83;;
5587;SDS011;2816;49.778;9.986;2023-04-22T10:26:53;7.00;;;4.20;;
5587;SDS011;2816;49.778;9.986;2023-04-22T10:29:21;5.93;;;3.63;;
5587;SDS011;2816;49.778;9.986;2023-04-22T10:31:55;9.20;;;3.83;;
5587;SDS011;2816;49.778;9.986;2023-04-22T10:34:30;7.33;;;4.53;;
5587;SDS011;2816;49.778;9.986;2023-04-22T10:36:58;6.40;;;4.30;;
5587;SDS011;2816;49.778;9.986;2023-04-22T10:39:27;6.13;;;3.23;;
5587;SDS011;2816;49.778;9.986;2023-04-22T10:42:04;3.97;;;3.57;;
5587;SDS011;2816;49.778;9.986;2023-04-22T10:44:47;4.93;;;4.27;;
5587;SDS011;2816;49.778;9.986;2023-04-22T10:47:24;8.40;;;4.57;;
5587;SDS011;2816;49.778;9.986;2023-04-22T10:50:07;8.50;;;4.03;;
5587;SDS011;2816;49.778;9.986;2023-04-22T10:52:36;4.30;;;3.40;;
5587;SDS011;2816;49.778;9.986;2023-04-22T10:55:03;5.10;;;4.17;;
5587;SDS011;2816;49.778;9.986;2023-04-22T10:57:35;7.43;;;3.60;;
5587;SDS011;2816;49.778;9.986;2023-04-22T11:00:22;4.33;;;3.87;;
5587;SDS011;2816;49.778;9.986;2023-04-22T11:03:05;3.63;;;3.33;;
5587;SDS011;2816;49.778;9.986;2023-04-22T11:05:40;5.80;;;3.30;;
5587;SDS011;2816;49.778;9.986;2023-04-22T11:08:10;3.30;;;2.87;;
5587;SDS011;2816;49.778;9.986;2023-04-22T11:10:41;4.87;;;2.83;;
5587;SDS011;2816;49.778;9.986;2023-04-22T11:13:09;4.70;;;3.07;;
5587;SDS011;2816;49.778;9.986;2023-04-22T11:15:40;2.80;;;2.60;;
5587;SDS011;2816;49.778;9.986;2023-04-22T11:18:11;5.83;;;2.80;;
5587;SDS011;2816;49.778;9.986;2023-04-22T11:20:40;4.13;;;2.67;;
5587;SDS011;2816;49.778;9.986;2023-04-22T11:23:07;4.23;;;3.17;;
5587;SDS011;2816;49.778;9.986;2023-04-22T11:25:34;2.70;;;2.50;;
5587;SDS011;2816;49.778;9.986;2023-04-22T11:28:01;6.03;;;3.57;;
5587;SDS011;2816;49.778;9.986;2023-04-22T11:30:28;7.20;;;2.83;;
5587;SDS011;2816;49.778;9.986;2023-04-22T11:32:56;8.77;;;3.20;;
5587;SDS011;2816;49.778;9.986;2023-04-22T11:35:26;8.93;;;2.93;;
5587;SDS011;2816;49.778;9.986;2023-04-22T11:37:56;4.97;;;3.10;;
5587;SDS011;2816;49.778;9.986;2023-04-22T11:40:25;3.07;;;2.30;;
5587;SDS011;2816;49.778;9.986;2023-04-22T11:42:53;3.87;;;2.30;;
5587;SDS011;2816;49.778;9.986;2023-04-22T11:45:21;2.40;;;2.20;;
5587;SDS011;2816;49.778;9.986;2023-04-22T11:47:49;2.00;;;1.90;;
5587;SDS011;2816;49.778;9.986;2023-04-22T11:50:17;2.20;;;2.10;;
5587;SDS011;2816;49.778;9.986;2023-04-22T11:52:49;1.73;;;1.63;;
5587;SDS011;2816;49.778;9.986;2023-04-22T11:55:21;2.17;;;1.97;;
5587;SDS011;2816;49.778;9.986;2023-04-22T11:57:52;1.83;;;1.70;;
5587;SDS011;2816;49.778;9.986;2023-04-22T12:00:21;2.40;;;1.53;;
5587;SDS011;2816;49.778;9.986;2023-04-22T12:02:58;1.90;;;1.80;;
5587;SDS011;2816;49.778;9.986;2023-04-22T12:05:32;4.20;;;1.87;;
5587;SDS011;2816;49.778;9.986;2023-04-22T12:08:03;2.10;;;1.87;;
5587;SDS011;2816;49.778;9.986;2023-04-22T12:10:32;2.40;;;1.90;;
5587;SDS011;2816;49.778;9.986;2023-04-22T12:13:00;2.03;;;1.80;;
5587;SDS011;2816;49.778;9.986;2023-04-22T12:15:35;3.00;;;1.70;;
5587;SDS011;2816;49.778;9.986;2023-04-22T12:18:06;1.57;;;1.47;;
5587;SDS011;2816;49.778;9.986;2023-04-22T12:20:33;2.23;;;1.70;;
5587;SDS011;2816;49.778;9.986;2023-04-22T12:23:03;2.03;;;1.83;;
5587;SDS011;2816;49.778;9.986;2023-04-22T12:25:30;3.47;;;1.60;;
5587;SDS011;2816;49.778;9.986;2023-04-22T12:27:58;1.47;;;1.37;;
5587;SDS011;2816;49.778;9.986;2023-04-22T12:30:25;1.87;;;1.77;;
5587;SDS011;2816;49.778;9.986;2023-04-22T12:32:52;2.57;;;1.50;;
5587;SDS011;2816;49.778;9.986;2023-04-22T12:35:19;4.73;;;1.70;;
5587;SDS011;2816;49.778;9.986;2023-04-22T12:37:46;1.40;;;1.30;;
5587;SDS011;2816;49.778;9.986;2023-04-22T12:40:15;10.57;;;1.77;;
5587;SDS011;2816;49.778;9.986;2023-04-22T12:42:42;3.23;;;1.67;;
5587;SDS011;2816;49.778;9.986;2023-04-22T12:45:09;1.97;;;1.40;;
5587;SDS011;2816;49.778;9.986;2023-04-22T12:47:36;2.93;;;1.53;;
5587;SDS011;2816;49.778;9.986;2023-04-22T12:50:03;5.07;;;1.70;;
5587;SDS011;2816;49.778;9.986;2023-04-22T12:52:32;1.60;;;1.50;;
5587;SDS011;2816;49.778;9.986;2023-04-22T12:54:59;1.40;;;1.30;;
5587;SDS011;2816;49.778;9.986;2023-04-22T12:57:28;1.40;;;1.30;;
5587;SDS011;2816;49.778;9.986;2023-04-22T12:59:55;1.37;;;1.27;;
5587;SDS011;2816;49.778;9.986;2023-04-22T13:02:23;1.70;;;1.60;;
5587;SDS011;2816;49.778;9.986;2023-04-22T13:04:50;1.57;;;1.47;;
5587;SDS011;2816;49.778;9.986;2023-04-22T13:07:17;1.63;;;1.20;;
5587;SDS011;2816;49.778;9.986;2023-04-22T13:09:44;5.63;;;1.30;;
5587;SDS011;2816;49.778;9.986;2023-04-22T13:12:11;1.23;;;1.13;;
5587;SDS011;2816;49.778;9.986;2023-04-22T13:14:40;1.63;;;1.30;;
5587;SDS011;2816;49.778;9.986;2023-04-22T13:17:07;1.43;;;1.23;;
5587;SDS011;2816;49.778;9.986;2023-04-22T13:19:34;1.77;;;1.20;;
5587;SDS011;2816;49.778;9.986;2023-04-22T13:22:01;1.30;;;1.20;;
5587;SDS011;2816;49.778;9.986;2023-04-22T13:24:28;4.70;;;1.63;;
5587;SDS011;2816;49.778;9.986;2023-04-22T13:26:55;1.40;;;1.30;;
5587;SDS011;2816;49.778;9.986;2023-04-22T13:29:23;2.80;;;1.40;;
5587;SDS011;2816;49.778;9.986;2023-04-22T13:31:51;1.43;;;1.33;;
5587;SDS011;2816;49.778;9.986;2023-04-22T13:34:18;2.60;;;1.30;;
5587;SDS011;2816;49.778;9.986;2023-04-22T13:36:45;1.67;;;1.33;;
5587;SDS011;2816;49.778;9.986;2023-04-22T13:39:12;13.77;;;1.97;;
5587;SDS011;2816;49.778;9.986;2023-04-22T13:41:39;1.60;;;1.50;;
5587;SDS011;2816;49.778;9.986;2023-04-22T13:44:06;1.63;;;1.53;;
5587;SDS011;2816;49.778;9.986;2023-04-22T13:46:35;2.23;;;1.20;;
5587;SDS011;2816;49.778;9.986;2023-04-22T13:49:04;2.07;;;1.30;;
5587;SDS011;2816;49.778;9.986;2023-04-22T13:51:31;4.33;;;1.23;;
5587;SDS011;2816;49.778;9.986;2023-04-22T13:53:58;4.60;;;1.43;;
5587;SDS011;2816;49.778;9.986;2023-04-22T13:56:25;1.93;;;1.27;;
5587;SDS011;2816;49.778;9.986;2023-04-22T13:58:52;1.30;;;1.20;;
5587;SDS011;2816;49.778;9.986;2023-04-22T14:01:19;1.50;;;1.40;;
5587;SDS011;2816;49.778;9.986;2023-04-22T14:03:47;3.80;;;1.50;;
5587;SDS011;2816;49.778;9.986;2023-04-22T14:06:16;1.73;;;1.50;;
5587;SDS011;2816;49.778;9.986;2023-04-22T14:08:43;2.20;;;1.70;;
5587;SDS011;2816;49.778;9.986;2023-04-22T14:11:10;5.43;;;1.63;;
5587;SDS011;2816;49.778;9.986;2023-04-22T14:13:38;1.80;;;1.70;;
5587;SDS011;2816;49.778;9.986;2023-04-22T14:16:05;2.50;;;1.63;;
5587;SDS011;2816;49.778;9.986;2023-04-22T14:18:34;1.77;;;1.30;;
5587;SDS011;2816;49.778;9.986;2023-04-22T14:21:02;1.70;;;1.60;;
5587;SDS011;2816;49.778;9.986;2023-04-22T14:23:32;1.70;;;1.60;;
5587;SDS011;2816;49.778;9.986;2023-04-22T14:25:59;3.03;;;1.70;;
5587;SDS011;2816;49.778;9.986;2023-04-22T14:28:26;1.87;;;1.63;;
5587;SDS011;2816;49.778;9.986;2023-04-22T14:30:53;1.50;;;1.40;;
5587;SDS011;2816;49.778;9.986;2023-04-22T14:33:20;2.00;;;1.60;;
5587;SDS011;2816;49.778;9.986;2023-04-22T14:35:48;3.83;;;1.77;;
5587;SDS011;2816;49.778;9.986;2023-04-22T14:38:16;5.80;;;2.13;;
5587;SDS011;2816;49.778;9.986;2023-04-22T14:40:45;1.47;;;1.37;;
5587;SDS011;2816;49.778;9.986;2023-04-22T14:43:12;3.40;;;1.40;;
5587;SDS011;2816;49.778;9.986;2023-04-22T14:45:40;3.43;;;1.57;;
5587;SDS011;2816;49.778;9.986;2023-04-22T14:48:06;2.60;;;1.57;;
5587;SDS011;2816;49.778;9.986;2023-04-22T14:50:33;5.90;;;1.40;;
5587;SDS011;2816;49.778;9.986;2023-04-22T14:53:00;2.60;;;1.40;;
5587;SDS011;2816;49.778;9.986;2023-04-22T14:55:28;4.10;;;1.70;;
5587;SDS011;2816;49.778;9.986;2023-04-22T14:57:57;1.47;;;1.37;;
5587;SDS011;2816;49.778;9.986;2023-04-22T15:00:24;3.77;;;1.70;;
5587;SDS011;2816;49.778;9.986;2023-04-22T15:02:52;3.30;;;1.50;;
5587;SDS011;2816;49.778;9.986;2023-04-22T15:05:19;1.70;;;1.43;;
5587;SDS011;2816;49.778;9.986;2023-04-22T15:07:47;2.67;;;1.70;;
5587;SDS011;2816;49.778;9.986;2023-04-22T15:10:14;3.00;;;1.40;;
5587;SDS011;2816;49.778;9.986;2023-04-22T15:12:42;2.70;;;1.97;;
5587;SDS011;2816;49.778;9.986;2023-04-22T15:15:10;4.20;;;1.80;;
5587;SDS011;2816;49.778;9.986;2023-04-22T15:17:39;5.17;;;2.20;;